sensor_id;sensor_type;location;lat;lon;timestamp;P1;durP1;ratioP1;P2;durP2;ratioP2
30818;SDS011;17546;42.674;23.284;2024-01-27T00:00:22;16.80;;;3.90;;
30818;SDS011;17546;42.674;23.284;2024-01-27T00:02:48;15.13;;;3.40;;
30818;SDS011;17546;42.674;23.284;2024-01-27T00:05:14;10.57;;;2.88;;
30818;SDS011;17546;42.674;23.284;2024-01-27T00:07:39;12.73;;;3.60;;
30818;SDS011;17546;42.674;23.284;2024-01-27T00:10:05;14.88;;;3.15;;
30818;SDS011;17546;42.674;23.284;2024-01-27T00:12:31;11.55;;;3.05;;
30818;SDS011;17546;42.674;23.284;2024-01-27T00:14:57;10.43;;;2.90;;
30818;SDS011;17546;42.674;23.284;2024-01-27T00:17:22;6.78;;;2.50;;
30818;SDS011;17546;42.674;23.284;2024-01-27T00:19:53;10.98;;;2.97;;
30818;SDS011;17546;42.674;23.284;2024-01-27T00:22:19;14.57;;;3.33;;
30818;SDS011;17546;42.674;23.284;2024-01-27T00:24:48;15.88;;;3.83;;
30818;SDS011;17546;42.674;23.284;2024-01-27T00:27:13;16.10;;;3.63;;
30818;SDS011;17546;42.674;23.284;2024-01-27T00:29:39;12.85;;;3.35;;
30818;SDS011;17546;42.674;23.284;2024-01-27T00:32:04;11.63;;;3.50;;
30818;SDS011;17546;42.674;23.284;2024-01-27T00:34:30;12.02;;;3.05;;
30818;SDS011;17546;42.674;23.284;2024-01-27T00:36:55;13.30;;;3.47;;
30818;SDS011;17546;42.674;23.284;2024-01-27T00:39:21;14.45;;;3.45;;
30818;SDS011;17546;42.674;23.284;2024-01-27T00:41:47;15.05;;;3.58;;
30818;SDS011;17546;42.674;23.284;2024-01-27T00:44:13;14.52;;;3.50;;
30818;SDS011;17546;42.674;23.284;2024-01-27T00:46:38;11.07;;;3.30;;
30818;SDS011;17546;42.674;23.284;2024-01-27T00:49:04;11.60;;;3.00;;
30818;SDS011;17546;42.674;23.284;2024-01-27T00:51:29;9.98;;;2.78;;
30818;SDS011;17546;42.674;23.284;2024-01-27T00:53:55;15.55;;;3.15;;
30818;SDS011;17546;42.674;23.284;2024-01-27T00:56:20;14.90;;;3.20;;
30818;SDS011;17546;42.674;23.284;2024-01-27T00:58:46;13.10;;;2.83;;
30818;SDS011;17546;42.674;23.284;2024-01-27T01:01:11;10.80;;;3.15;;
30818;SDS011;17546;42.674;23.284;2024-01-27T01:03:37;15.38;;;3.15;;
30818;SDS011;17546;42.674;23.284;2024-01-27T01:06:02;9.07;;;2.88;;
30818;SDS011;17546;42.674;23.284;2024-01-27T01:08:28;10.93;;;2.97;;
30818;SDS011;17546;42.674;23.284;2024-01-27T01:10:54;14.85;;;3.53;;
30818;SDS011;17546;42.674;23.284;2024-01-27T01:13:19;10.07;;;3.05;;
30818;SDS011;17546;42.674;23.284;2024-01-27T01:15:45;13.48;;;3.65;;
30818;SDS011;17546;42.674;23.284;2024-01-27T01:18:10;11.57;;;3.75;;
30818;SDS011;17546;42.674;23.284;2024-01-27T01:20:36;12.60;;;3.47;;
30818;SDS011;17546;42.674;23.284;2024-01-27T01:23:02;14.02;;;3.50;;
30818;SDS011;17546;42.674;23.284;2024-01-27T01:25:27;11.77;;;3.60;;
30818;SDS011;17546;42.674;23.284;2024-01-27T01:27:53;13.02;;;3.65;;
30818;SDS011;17546;42.674;23.284;2024-01-27T01:30:18;11.68;;;3.47;;
30818;SDS011;17546;42.674;23.284;2024-01-27T01:32:44;11.63;;;3.20;;
30818;SDS011;17546;42.674;23.284;2024-01-27T01:35:10;12.27;;;3.13;;
30818;SDS011;17546;42.674;23.284;2024-01-27T01:37:35;13.10;;;3.55;;
30818;SDS011;17546;42.674;23.284;2024-01-27T01:40:01;13.63;;;3.40;;
30818;SDS011;17546;42.674;23.284;2024-01-27T01:42:28;10.15;;;3.00;;
30818;SDS011;17546;42.674;23.284;2024-01-27T01:44:54;11.10;;;3.25;;
30818;SDS011;17546;42.674;23.284;2024-01-27T01:47:20;16.38;;;3.25;;
30818;SDS011;17546;42.674;23.284;2024-01-27T01:49:47;13.48;;;3.65;;
30818;SDS011;17546;42.674;23.284;2024-01-27T01:52:13;13.38;;;3.33;;
30818;SDS011;17546;42.674;23.284;2024-01-27T01:54:45;12.07;;;3.05;;
30818;SDS011;17546;42.674;23.284;2024-01-27T01:57:13;10.75;;;2.88;;
30818;SDS011;17546;42.674;23.284;2024-01-27T01:59:39;9.15;;;2.53;;
30818;SDS011;17546;42.674;23.284;2024-01-27T02:02:06;13.32;;;3.08;;
30818;SDS011;17546;42.674;23.284;2024-01-27T02:04:41;10.95;;;3.03;;
30818;SDS011;17546;42.674;23.284;2024-01-27T02:07:07;10.38;;;2.88;;
30818;SDS011;17546;42.674;23.284;2024-01-27T02:09:33;11.57;;;2.63;;
30818;SDS011;17546;42.674;23.284;2024-01-27T02:11:58;11.35;;;2.50;;
30818;SDS011;17546;42.674;23.284;2024-01-27T02:14:24;9.73;;;2.70;;
30818;SDS011;17546;42.674;23.284;2024-01-27T02:16:52;12.30;;;2.40;;
30818;SDS011;17546;42.674;23.284;2024-01-27T02:19:18;11.38;;;2.25;;
30818;SDS011;17546;42.674;23.284;2024-01-27T02:21:44;8.73;;;2.28;;
30818;SDS011;17546;42.674;23.284;2024-01-27T02:24:09;7.20;;;2.20;;
30818;SDS011;17546;42.674;23.284;2024-01-27T02:26:35;8.27;;;2.40;;
30818;SDS011;17546;42.674;23.284;2024-01-27T02:29:01;9.02;;;2.10;;
30818;SDS011;17546;42.674;23.284;2024-01-27T02:31:26;11.23;;;2.47;;
30818;SDS011;17546;42.674;23.284;2024-01-27T02:33:52;5.45;;;1.70;;
30818;SDS011;17546;42.674;23.284;2024-01-27T02:36:17;12.35;;;2.20;;
30818;SDS011;17546;42.674;23.284;2024-01-27T02:38:43;6.40;;;2.13;;
30818;SDS011;17546;42.674;23.284;2024-01-27T02:41:09;8.52;;;2.10;;
30818;SDS011;17546;42.674;23.284;2024-01-27T02:43:36;6.95;;;2.05;;
30818;SDS011;17546;42.674;23.284;2024-01-27T02:46:01;8.38;;;2.22;;
30818;SDS011;17546;42.674;23.284;2024-01-27T02:48:27;3.97;;;1.60;;
30818;SDS011;17546;42.674;23.284;2024-01-27T02:50:53;10.73;;;2.05;;
30818;SDS011;17546;42.674;23.284;2024-01-27T02:53:18;9.32;;;1.90;;
30818;SDS011;17546;42.674;23.284;2024-01-27T02:55:44;10.50;;;2.47;;
30818;SDS011;17546;42.674;23.284;2024-01-27T02:58:09;7.28;;;2.22;;
30818;SDS011;17546;42.674;23.284;2024-01-27T03:00:35;10.63;;;2.58;;
30818;SDS011;17546;42.674;23.284;2024-01-27T03:03:00;7.40;;;2.22;;
30818;SDS011;17546;42.674;23.284;2024-01-27T03:05:26;11.63;;;2.70;;
30818;SDS011;17546;42.674;23.284;2024-01-27T03:07:51;10.50;;;2.15;;
30818;SDS011;17546;42.674;23.284;2024-01-27T03:10:17;8.70;;;2.58;;
30818;SDS011;17546;42.674;23.284;2024-01-27T03:12:43;13.05;;;2.10;;
30818;SDS011;17546;42.674;23.284;2024-01-27T03:15:08;8.43;;;2.50;;
30818;SDS011;17546;42.674;23.284;2024-01-27T03:17:34;13.70;;;2.53;;
30818;SDS011;17546;42.674;23.284;2024-01-27T03:19:59;11.90;;;2.60;;
30818;SDS011;17546;42.674;23.284;2024-01-27T03:22:25;8.10;;;2.38;;
30818;SDS011;17546;42.674;23.284;2024-01-27T03:24:50;10.60;;;2.58;;
30818;SDS011;17546;42.674;23.284;2024-01-27T03:27:18;10.30;;;2.47;;
30818;SDS011;17546;42.674;23.284;2024-01-27T03:29:43;11.77;;;2.08;;
30818;SDS011;17546;42.674;23.284;2024-01-27T03:32:09;10.93;;;2.35;;
30818;SDS011;17546;42.674;23.284;2024-01-27T03:34:34;9.55;;;2.22;;
30818;SDS011;17546;42.674;23.284;2024-01-27T03:37:00;7.10;;;2.10;;
30818;SDS011;17546;42.674;23.284;2024-01-27T03:39:25;8.77;;;2.00;;
30818;SDS011;17546;42.674;23.284;2024-01-27T03:41:50;10.23;;;2.20;;
30818;SDS011;17546;42.674;23.284;2024-01-27T03:44:16;8.35;;;2.40;;
30818;SDS011;17546;42.674;23.284;2024-01-27T03:46:41;9.68;;;2.47;;
30818;SDS011;17546;42.674;23.284;2024-01-27T03:49:07;6.63;;;2.30;;
30818;SDS011;17546;42.674;23.284;2024-01-27T03:51:32;9.35;;;2.33;;
30818;SDS011;17546;42.674;23.284;2024-01-27T03:53:58;8.32;;;2.45;;
30818;SDS011;17546;42.674;23.284;2024-01-27T03:56:23;11.05;;;2.60;;
30818;SDS011;17546;42.674;23.284;2024-01-27T03:58:49;10.10;;;2.75;;
30818;SDS011;17546;42.674;23.284;2024-01-27T04:01:15;13.20;;;3.00;;
30818;SDS011;17546;42.674;23.284;2024-01-27T04:03:40;10.07;;;3.30;;
30818;SDS011;17546;42.674;23.284;2024-01-27T04:06:06;12.27;;;2.67;;
30818;SDS011;17546;42.674;23.284;2024-01-27T04:08:31;11.27;;;3.20;;
30818;SDS011;17546;42.674;23.284;2024-01-27T04:10:57;7.97;;;3.00;;
30818;SDS011;17546;42.674;23.284;2024-01-27T04:13:22;7.25;;;2.80;;
30818;SDS011;17546;42.674;23.284;2024-01-27T04:15:48;9.75;;;3.15;;
30818;SDS011;17546;42.674;23.284;2024-01-27T04:18:16;8.75;;;2.55;;
30818;SDS011;17546;42.674;23.284;2024-01-27T04:20:41;12.32;;;2.85;;
30818;SDS011;17546;42.674;23.284;2024-01-27T04:23:07;9.57;;;3.05;;
30818;SDS011;17546;42.674;23.284;2024-01-27T04:25:32;5.72;;;2.60;;
30818;SDS011;17546;42.674;23.284;2024-01-27T04:27:58;6.90;;;2.67;;
30818;SDS011;17546;42.674;23.284;2024-01-27T04:30:23;9.23;;;2.50;;
30818;SDS011;17546;42.674;23.284;2024-01-27T04:32:49;8.77;;;2.45;;
30818;SDS011;17546;42.674;23.284;2024-01-27T04:35:15;12.43;;;2.97;;
30818;SDS011;17546;42.674;23.284;2024-01-27T04:37:41;8.32;;;2.15;;
30818;SDS011;17546;42.674;23.284;2024-01-27T04:40:07;6.97;;;2.40;;
30818;SDS011;17546;42.674;23.284;2024-01-27T04:42:37;13.02;;;2.97;;
30818;SDS011;17546;42.674;23.284;2024-01-27T04:45:03;8.18;;;2.45;;
30818;SDS011;17546;42.674;23.284;2024-01-27T04:47:32;7.53;;;2.20;;
30818;SDS011;17546;42.674;23.284;2024-01-27T04:49:58;9.07;;;2.42;;
30818;SDS011;17546;42.674;23.284;2024-01-27T04:52:23;10.85;;;2.53;;
30818;SDS011;17546;42.674;23.284;2024-01-27T04:54:49;9.77;;;2.78;;
30818;SDS011;17546;42.674;23.284;2024-01-27T04:57:15;11.68;;;3.05;;
30818;SDS011;17546;42.674;23.284;2024-01-27T04:59:41;7.72;;;2.85;;
30818;SDS011;17546;42.674;23.284;2024-01-27T05:02:06;8.13;;;2.08;;
30818;SDS011;17546;42.674;23.284;2024-01-27T05:04:32;5.22;;;1.90;;
30818;SDS011;17546;42.674;23.284;2024-01-27T05:06:57;8.13;;;2.17;;
30818;SDS011;17546;42.674;23.284;2024-01-27T05:09:23;6.47;;;2.58;;
30818;SDS011;17546;42.674;23.284;2024-01-27T05:11:48;5.93;;;2.20;;
30818;SDS011;17546;42.674;23.284;2024-01-27T05:14:17;8.88;;;1.98;;
30818;SDS011;17546;42.674;23.284;2024-01-27T05:16:43;4.63;;;2.20;;
30818;SDS011;17546;42.674;23.284;2024-01-27T05:19:09;6.45;;;2.00;;
30818;SDS011;17546;42.674;23.284;2024-01-27T05:21:35;8.45;;;2.10;;
30818;SDS011;17546;42.674;23.284;2024-01-27T05:24:01;7.53;;;2.13;;
30818;SDS011;17546;42.674;23.284;2024-01-27T05:26:26;6.03;;;1.90;;
30818;SDS011;17546;42.674;23.284;2024-01-27T05:28:52;10.13;;;2.42;;
30818;SDS011;17546;42.674;23.284;2024-01-27T05:31:18;7.70;;;2.22;;
30818;SDS011;17546;42.674;23.284;2024-01-27T05:33:43;4.57;;;2.40;;
30818;SDS011;17546;42.674;23.284;2024-01-27T05:36:09;8.13;;;2.20;;
30818;SDS011;17546;42.674;23.284;2024-01-27T05:38:34;9.55;;;2.22;;
30818;SDS011;17546;42.674;23.284;2024-01-27T05:41:03;8.68;;;2.42;;
30818;SDS011;17546;42.674;23.284;2024-01-27T05:43:28;4.88;;;2.22;;
30818;SDS011;17546;42.674;23.284;2024-01-27T05:45:54;7.80;;;2.60;;
30818;SDS011;17546;42.674;23.284;2024-01-27T05:48:20;7.18;;;2.60;;
30818;SDS011;17546;42.674;23.284;2024-01-27T05:50:55;6.10;;;3.17;;
30818;SDS011;17546;42.674;23.284;2024-01-27T05:53:22;16.63;;;6.35;;
30818;SDS011;17546;42.674;23.284;2024-01-27T05:55:47;17.55;;;6.05;;
30818;SDS011;17546;42.674;23.284;2024-01-27T05:58:13;15.65;;;5.55;;
30818;SDS011;17546;42.674;23.284;2024-01-27T06:00:38;12.98;;;5.35;;
30818;SDS011;17546;42.674;23.284;2024-01-27T06:03:04;10.40;;;4.30;;
30818;SDS011;17546;42.674;23.284;2024-01-27T06:05:30;8.73;;;3.92;;
30818;SDS011;17546;42.674;23.284;2024-01-27T06:07:55;12.35;;;3.65;;
30818;SDS011;17546;42.674;23.284;2024-01-27T06:10:21;11.40;;;3.97;;
30818;SDS011;17546;42.674;23.284;2024-01-27T06:12:47;6.38;;;3.00;;
30818;SDS011;17546;42.674;23.284;2024-01-27T06:15:13;6.10;;;2.47;;
30818;SDS011;17546;42.674;23.284;2024-01-27T06:17:40;4.00;;;1.50;;
30818;SDS011;17546;42.674;23.284;2024-01-27T06:20:06;5.28;;;2.17;;
30818;SDS011;17546;42.674;23.284;2024-01-27T06:22:32;3.63;;;2.00;;
30818;SDS011;17546;42.674;23.284;2024-01-27T06:24:58;3.05;;;1.60;;
30818;SDS011;17546;42.674;23.284;2024-01-27T06:27:23;3.97;;;1.48;;
30818;SDS011;17546;42.674;23.284;2024-01-27T06:29:49;1.70;;;1.00;;
30818;SDS011;17546;42.674;23.284;2024-01-27T06:32:14;4.07;;;1.20;;
30818;SDS011;17546;42.674;23.284;2024-01-27T06:34:40;4.72;;;1.75;;
30818;SDS011;17546;42.674;23.284;2024-01-27T06:37:06;2.70;;;1.52;;
30818;SDS011;17546;42.674;23.284;2024-01-27T06:39:31;3.15;;;1.45;;
30818;SDS011;17546;42.674;23.284;2024-01-27T06:41:57;2.92;;;1.80;;
30818;SDS011;17546;42.674;23.284;2024-01-27T06:44:22;2.60;;;1.35;;
30818;SDS011;17546;42.674;23.284;2024-01-27T06:46:48;2.47;;;1.10;;
30818;SDS011;17546;42.674;23.284;2024-01-27T06:49:16;2.92;;;1.40;;
30818;SDS011;17546;42.674;23.284;2024-01-27T06:51:43;2.38;;;1.10;;
30818;SDS011;17546;42.674;23.284;2024-01-27T06:54:08;3.80;;;1.42;;
30818;SDS011;17546;42.674;23.284;2024-01-27T06:56:34;5.10;;;1.95;;
30818;SDS011;17546;42.674;23.284;2024-01-27T06:59:00;2.72;;;1.13;;
30818;SDS011;17546;42.674;23.284;2024-01-27T07:01:25;3.80;;;1.35;;
30818;SDS011;17546;42.674;23.284;2024-01-27T07:03:51;2.30;;;1.40;;
30818;SDS011;17546;42.674;23.284;2024-01-27T07:06:16;3.20;;;1.30;;
30818;SDS011;17546;42.674;23.284;2024-01-27T07:08:42;5.55;;;1.83;;
30818;SDS011;17546;42.674;23.284;2024-01-27T07:11:07;3.88;;;2.00;;
30818;SDS011;17546;42.674;23.284;2024-01-27T07:13:32;3.88;;;1.50;;
30818;SDS011;17546;42.674;23.284;2024-01-27T07:15:58;3.45;;;1.73;;
30818;SDS011;17546;42.674;23.284;2024-01-27T07:18:24;5.38;;;1.67;;
30818;SDS011;17546;42.674;23.284;2024-01-27T07:20:50;2.97;;;1.50;;
30818;SDS011;17546;42.674;23.284;2024-01-27T07:23:16;5.03;;;1.70;;
30818;SDS011;17546;42.674;23.284;2024-01-27T07:25:42;5.35;;;1.77;;
30818;SDS011;17546;42.674;23.284;2024-01-27T07:28:08;3.28;;;1.80;;
30818;SDS011;17546;42.674;23.284;2024-01-27T07:30:34;4.78;;;1.70;;
30818;SDS011;17546;42.674;23.284;2024-01-27T07:32:59;4.80;;;2.00;;
30818;SDS011;17546;42.674;23.284;2024-01-27T07:35:25;3.25;;;1.40;;
30818;SDS011;17546;42.674;23.284;2024-01-27T07:37:50;4.88;;;2.33;;
30818;SDS011;17546;42.674;23.284;2024-01-27T07:40:16;7.57;;;2.30;;
30818;SDS011;17546;42.674;23.284;2024-01-27T07:42:41;3.90;;;2.25;;
30818;SDS011;17546;42.674;23.284;2024-01-27T07:45:07;3.95;;;1.80;;
30818;SDS011;17546;42.674;23.284;2024-01-27T07:47:35;4.82;;;2.53;;
30818;SDS011;17546;42.674;23.284;2024-01-27T07:50:01;4.72;;;2.13;;
30818;SDS011;17546;42.674;23.284;2024-01-27T07:52:26;3.67;;;1.90;;
30818;SDS011;17546;42.674;23.284;2024-01-27T07:54:52;6.43;;;2.60;;
30818;SDS011;17546;42.674;23.284;2024-01-27T07:57:20;4.93;;;2.20;;
30818;SDS011;17546;42.674;23.284;2024-01-27T07:59:46;5.68;;;2.53;;
30818;SDS011;17546;42.674;23.284;2024-01-27T08:02:12;2.63;;;1.55;;
30818;SDS011;17546;42.674;23.284;2024-01-27T08:04:38;8.00;;;3.38;;
30818;SDS011;17546;42.674;23.284;2024-01-27T08:07:04;7.97;;;3.55;;
30818;SDS011;17546;42.674;23.284;2024-01-27T08:09:34;15.07;;;7.55;;
30818;SDS011;17546;42.674;23.284;2024-01-27T08:12:03;9.65;;;4.40;;
30818;SDS011;17546;42.674;23.284;2024-01-27T08:14:29;7.07;;;2.72;;
30818;SDS011;17546;42.674;23.284;2024-01-27T08:16:55;6.68;;;2.90;;
30818;SDS011;17546;42.674;23.284;2024-01-27T08:19:23;7.38;;;3.28;;
30818;SDS011;17546;42.674;23.284;2024-01-27T08:21:49;5.32;;;2.35;;
30818;SDS011;17546;42.674;23.284;2024-01-27T08:24:14;6.35;;;2.65;;
30818;SDS011;17546;42.674;23.284;2024-01-27T08:26:40;8.52;;;2.45;;
30818;SDS011;17546;42.674;23.284;2024-01-27T08:29:07;7.20;;;2.60;;
30818;SDS011;17546;42.674;23.284;2024-01-27T08:31:33;5.57;;;2.58;;
30818;SDS011;17546;42.674;23.284;2024-01-27T08:33:59;7.35;;;2.95;;
30818;SDS011;17546;42.674;23.284;2024-01-27T08:36:24;7.53;;;2.50;;
30818;SDS011;17546;42.674;23.284;2024-01-27T08:38:51;6.90;;;2.83;;
30818;SDS011;17546;42.674;23.284;2024-01-27T08:41:17;5.20;;;2.08;;
30818;SDS011;17546;42.674;23.284;2024-01-27T08:43:42;5.50;;;2.80;;
30818;SDS011;17546;42.674;23.284;2024-01-27T08:46:08;4.35;;;2.58;;
30818;SDS011;17546;42.674;23.284;2024-01-27T08:48:36;9.45;;;3.00;;
30818;SDS011;17546;42.674;23.284;2024-01-27T08:51:02;8.02;;;2.80;;
30818;SDS011;17546;42.674;23.284;2024-01-27T08:53:28;5.97;;;2.15;;
30818;SDS011;17546;42.674;23.284;2024-01-27T08:55:53;7.82;;;3.53;;
30818;SDS011;17546;42.674;23.284;2024-01-27T08:58:19;3.60;;;1.95;;
30818;SDS011;17546;42.674;23.284;2024-01-27T09:00:44;7.45;;;2.25;;
30818;SDS011;17546;42.674;23.284;2024-01-27T09:03:10;6.28;;;2.40;;
30818;SDS011;17546;42.674;23.284;2024-01-27T09:05:37;4.38;;;2.20;;
30818;SDS011;17546;42.674;23.284;2024-01-27T09:08:03;5.00;;;2.40;;
30818;SDS011;17546;42.674;23.284;2024-01-27T09:10:28;3.97;;;2.42;;
30818;SDS011;17546;42.674;23.284;2024-01-27T09:12:54;4.72;;;2.58;;
30818;SDS011;17546;42.674;23.284;2024-01-27T09:15:19;6.55;;;2.67;;
30818;SDS011;17546;42.674;23.284;2024-01-27T09:17:45;5.90;;;2.80;;
30818;SDS011;17546;42.674;23.284;2024-01-27T09:20:10;5.70;;;2.22;;
30818;SDS011;17546;42.674;23.284;2024-01-27T09:22:36;7.05;;;2.70;;
30818;SDS011;17546;42.674;23.284;2024-01-27T09:25:01;7.35;;;2.47;;
30818;SDS011;17546;42.674;23.284;2024-01-27T09:27:27;6.40;;;2.85;;
30818;SDS011;17546;42.674;23.284;2024-01-27T09:29:52;4.45;;;2.13;;
30818;SDS011;17546;42.674;23.284;2024-01-27T09:32:18;4.30;;;2.10;;
30818;SDS011;17546;42.674;23.284;2024-01-27T09:34:43;4.22;;;2.35;;
30818;SDS011;17546;42.674;23.284;2024-01-27T09:37:09;4.32;;;1.75;;
30818;SDS011;17546;42.674;23.284;2024-01-27T09:39:35;4.15;;;1.80;;
30818;SDS011;17546;42.674;23.284;2024-01-27T09:42:00;4.90;;;2.10;;
30818;SDS011;17546;42.674;23.284;2024-01-27T09:44:31;5.45;;;2.20;;
30818;SDS011;17546;42.674;23.284;2024-01-27T09:46:57;4.30;;;2.45;;
30818;SDS011;17546;42.674;23.284;2024-01-27T09:49:23;5.65;;;2.10;;
30818;SDS011;17546;42.674;23.284;2024-01-27T09:51:51;2.97;;;1.75;;
30818;SDS011;17546;42.674;23.284;2024-01-27T09:54:17;5.13;;;2.40;;
30818;SDS011;17546;42.674;23.284;2024-01-27T09:56:45;5.80;;;2.85;;
30818;SDS011;17546;42.674;23.284;2024-01-27T09:59:11;5.93;;;2.60;;
30818;SDS011;17546;42.674;23.284;2024-01-27T10:01:39;5.38;;;3.17;;
30818;SDS011;17546;42.674;23.284;2024-01-27T10:04:06;5.07;;;2.85;;
30818;SDS011;17546;42.674;23.284;2024-01-27T10:06:34;4.25;;;2.40;;
30818;SDS011;17546;42.674;23.284;2024-01-27T10:08:59;2.13;;;1.60;;
30818;SDS011;17546;42.674;23.284;2024-01-27T10:11:25;5.05;;;2.70;;
30818;SDS011;17546;42.674;23.284;2024-01-27T10:13:55;5.32;;;2.20;;
30818;SDS011;17546;42.674;23.284;2024-01-27T10:16:21;4.15;;;2.25;;
30818;SDS011;17546;42.674;23.284;2024-01-27T10:18:47;2.92;;;2.13;;
30818;SDS011;17546;42.674;23.284;2024-01-27T10:21:16;3.38;;;1.92;;
30818;SDS011;17546;42.674;23.284;2024-01-27T10:23:43;3.65;;;1.85;;
30818;SDS011;17546;42.674;23.284;2024-01-27T10:26:09;6.10;;;3.03;;
30818;SDS011;17546;42.674;23.284;2024-01-27T10:28:35;3.92;;;2.22;;
30818;SDS011;17546;42.674;23.284;2024-01-27T10:31:07;3.53;;;1.80;;
30818;SDS011;17546;42.674;23.284;2024-01-27T10:33:36;3.83;;;2.05;;
30818;SDS011;17546;42.674;23.284;2024-01-27T10:36:02;3.35;;;1.58;;
30818;SDS011;17546;42.674;23.284;2024-01-27T10:38:37;6.25;;;2.30;;
30818;SDS011;17546;42.674;23.284;2024-01-27T10:41:04;7.10;;;1.85;;
30818;SDS011;17546;42.674;23.284;2024-01-27T10:43:33;6.38;;;1.70;;
30818;SDS011;17546;42.674;23.284;2024-01-27T10:46:00;3.63;;;1.70;;
30818;SDS011;17546;42.674;23.284;2024-01-27T10:48:31;6.85;;;1.95;;
30818;SDS011;17546;42.674;23.284;2024-01-27T10:51:00;3.60;;;1.75;;
30818;SDS011;17546;42.674;23.284;2024-01-27T10:53:28;6.18;;;2.35;;
30818;SDS011;17546;42.674;23.284;2024-01-27T10:56:00;3.95;;;2.33;;
30818;SDS011;17546;42.674;23.284;2024-01-27T10:58:26;2.85;;;1.50;;
30818;SDS011;17546;42.674;23.284;2024-01-27T11:00:53;3.05;;;1.70;;
30818;SDS011;17546;42.674;23.284;2024-01-27T11:03:21;4.22;;;2.10;;
30818;SDS011;17546;42.674;23.284;2024-01-27T11:05:49;9.57;;;1.95;;
30818;SDS011;17546;42.674;23.284;2024-01-27T11:08:16;3.78;;;2.10;;
30818;SDS011;17546;42.674;23.284;2024-01-27T11:10:43;3.67;;;2.22;;
30818;SDS011;17546;42.674;23.284;2024-01-27T11:13:09;10.25;;;2.50;;
30818;SDS011;17546;42.674;23.284;2024-01-27T11:15:37;5.53;;;2.45;;
30818;SDS011;17546;42.674;23.284;2024-01-27T11:18:04;3.22;;;2.03;;
30818;SDS011;17546;42.674;23.284;2024-01-27T11:20:32;4.72;;;2.25;;
30818;SDS011;17546;42.674;23.284;2024-01-27T11:23:14;4.22;;;2.35;;
30818;SDS011;17546;42.674;23.284;2024-01-27T11:25:40;4.68;;;1.88;;
30818;SDS011;17546;42.674;23.284;2024-01-27T11:28:12;3.88;;;2.15;;
30818;SDS011;17546;42.674;23.284;2024-01-27T11:30:39;4.07;;;1.88;;
30818;SDS011;17546;42.674;23.284;2024-01-27T11:33:05;6.78;;;2.97;;
30818;SDS011;17546;42.674;23.284;2024-01-27T11:35:31;3.33;;;2.22;;
30818;SDS011;17546;42.674;23.284;2024-01-27T11:37:57;7.55;;;2.10;;
30818;SDS011;17546;42.674;23.284;2024-01-27T11:40:22;5.22;;;3.10;;
30818;SDS011;17546;42.674;23.284;2024-01-27T11:42:57;4.63;;;2.40;;
30818;SDS011;17546;42.674;23.284;2024-01-27T11:45:23;3.50;;;1.92;;
30818;SDS011;17546;42.674;23.284;2024-01-27T11:47:49;4.78;;;2.33;;
30818;SDS011;17546;42.674;23.284;2024-01-27T11:50:18;8.00;;;2.60;;
30818;SDS011;17546;42.674;23.284;2024-01-27T11:52:44;3.75;;;1.90;;
30818;SDS011;17546;42.674;23.284;2024-01-27T11:55:10;3.97;;;2.20;;
30818;SDS011;17546;42.674;23.284;2024-01-27T11:57:36;6.30;;;2.85;;
30818;SDS011;17546;42.674;23.284;2024-01-27T12:00:01;4.25;;;2.47;;
30818;SDS011;17546;42.674;23.284;2024-01-27T12:02:27;3.13;;;2.53;;
30818;SDS011;17546;42.674;23.284;2024-01-27T12:04:53;8.13;;;2.47;;
30818;SDS011;17546;42.674;23.284;2024-01-27T12:07:19;6.65;;;2.97;;
30818;SDS011;17546;42.674;23.284;2024-01-27T12:09:46;5.82;;;2.42;;
30818;SDS011;17546;42.674;23.284;2024-01-27T12:12:12;6.80;;;3.10;;
30818;SDS011;17546;42.674;23.284;2024-01-27T12:14:49;3.67;;;2.53;;
30818;SDS011;17546;42.674;23.284;2024-01-27T12:17:15;6.32;;;2.13;;
30818;SDS011;17546;42.674;23.284;2024-01-27T12:19:48;8.35;;;2.85;;
30818;SDS011;17546;42.674;23.284;2024-01-27T12:22:24;6.90;;;2.50;;
30818;SDS011;17546;42.674;23.284;2024-01-27T12:24:54;5.20;;;2.53;;
30818;SDS011;17546;42.674;23.284;2024-01-27T12:27:23;3.80;;;2.28;;
30818;SDS011;17546;42.674;23.284;2024-01-27T12:29:49;2.92;;;2.00;;
30818;SDS011;17546;42.674;23.284;2024-01-27T12:32:15;4.18;;;2.13;;
30818;SDS011;17546;42.674;23.284;2024-01-27T12:34:42;4.30;;;2.47;;
30818;SDS011;17546;42.674;23.284;2024-01-27T12:37:08;5.22;;;2.60;;
30818;SDS011;17546;42.674;23.284;2024-01-27T12:39:36;4.55;;;2.30;;
30818;SDS011;17546;42.674;23.284;2024-01-27T12:42:03;5.10;;;2.67;;
30818;SDS011;17546;42.674;23.284;2024-01-27T12:44:28;3.28;;;2.10;;
30818;SDS011;17546;42.674;23.284;2024-01-27T12:46:54;4.57;;;2.45;;
30818;SDS011;17546;42.674;23.284;2024-01-27T12:49:19;8.05;;;3.00;;
30818;SDS011;17546;42.674;23.284;2024-01-27T12:51:45;5.20;;;2.15;;
30818;SDS011;17546;42.674;23.284;2024-01-27T12:54:12;7.03;;;3.15;;
30818;SDS011;17546;42.674;23.284;2024-01-27T12:56:37;7.43;;;3.00;;
30818;SDS011;17546;42.674;23.284;2024-01-27T12:59:03;6.32;;;3.50;;
30818;SDS011;17546;42.674;23.284;2024-01-27T13:01:30;6.38;;;2.20;;
30818;SDS011;17546;42.674;23.284;2024-01-27T13:03:56;10.65;;;3.20;;
30818;SDS011;17546;42.674;23.284;2024-01-27T13:06:21;15.68;;;5.78;;
30818;SDS011;17546;42.674;23.284;2024-01-27T13:08:48;4.97;;;2.22;;
30818;SDS011;17546;42.674;23.284;2024-01-27T13:11:13;12.52;;;2.05;;
30818;SDS011;17546;42.674;23.284;2024-01-27T13:13:42;5.38;;;1.83;;
30818;SDS011;17546;42.674;23.284;2024-01-27T13:16:07;7.53;;;2.03;;
30818;SDS011;17546;42.674;23.284;2024-01-27T13:18:33;7.57;;;1.98;;
30818;SDS011;17546;42.674;23.284;2024-01-27T13:20:58;5.20;;;2.03;;
30818;SDS011;17546;42.674;23.284;2024-01-27T13:23:24;8.00;;;2.50;;
30818;SDS011;17546;42.674;23.284;2024-01-27T13:25:49;6.90;;;2.10;;
30818;SDS011;17546;42.674;23.284;2024-01-27T13:28:15;3.33;;;1.77;;
30818;SDS011;17546;42.674;23.284;2024-01-27T13:30:41;4.82;;;2.08;;
30818;SDS011;17546;42.674;23.284;2024-01-27T13:33:07;5.18;;;1.90;;
30818;SDS011;17546;42.674;23.284;2024-01-27T13:35:32;3.65;;;1.67;;
30818;SDS011;17546;42.674;23.284;2024-01-27T13:37:58;5.63;;;1.02;;
30818;SDS011;17546;42.674;23.284;2024-01-27T13:40:23;10.27;;;1.90;;
30818;SDS011;17546;42.674;23.284;2024-01-27T13:42:49;5.20;;;2.15;;
30818;SDS011;17546;42.674;23.284;2024-01-27T13:45:14;3.33;;;1.98;;
30818;SDS011;17546;42.674;23.284;2024-01-27T13:47:40;6.05;;;1.90;;
30818;SDS011;17546;42.674;23.284;2024-01-27T13:50:06;5.18;;;1.92;;
30818;SDS011;17546;42.674;23.284;2024-01-27T13:52:32;6.63;;;2.60;;
30818;SDS011;17546;42.674;23.284;2024-01-27T13:54:57;7.45;;;2.30;;
30818;SDS011;17546;42.674;23.284;2024-01-27T13:57:23;3.75;;;1.83;;
30818;SDS011;17546;42.674;23.284;2024-01-27T13:59:48;5.15;;;2.22;;
30818;SDS011;17546;42.674;23.284;2024-01-27T14:02:14;5.80;;;2.63;;
30818;SDS011;17546;42.674;23.284;2024-01-27T14:04:40;5.38;;;2.10;;
30818;SDS011;17546;42.674;23.284;2024-01-27T14:07:05;5.32;;;2.10;;
30818;SDS011;17546;42.674;23.284;2024-01-27T14:09:35;8.48;;;2.65;;
30818;SDS011;17546;42.674;23.284;2024-01-27T14:12:01;5.88;;;2.30;;
30818;SDS011;17546;42.674;23.284;2024-01-27T14:14:26;11.30;;;4.47;;
30818;SDS011;17546;42.674;23.284;2024-01-27T14:16:53;5.82;;;2.55;;
30818;SDS011;17546;42.674;23.284;2024-01-27T14:19:19;7.25;;;3.10;;
30818;SDS011;17546;42.674;23.284;2024-01-27T14:21:44;8.82;;;3.10;;
30818;SDS011;17546;42.674;23.284;2024-01-27T14:24:10;8.05;;;2.72;;